sensor_id;sensor_type;location;lat;lon;timestamp;temperature;humidity
66032;DHT22;52799;45.654;13.810;2022-08-04T14:57:41;33.20;40.30
66032;DHT22;52799;45.654;13.810;2022-08-04T15:00:07;33.10;40.70
66032;DHT22;52799;45.654;13.810;2022-08-04T15:02:33;32.80;41.70
66032;DHT22;52799;45.654;13.810;2022-08-04T15:05:00;32.80;40.90
66032;DHT22;52799;45.654;13.810;2022-08-04T15:07:26;33.00;42.00
66032;DHT22;52799;45.654;13.810;2022-08-04T15:09:52;32.90;42.70
66032;DHT22;52799;45.654;13.810;2022-08-04T15:12:18;32.80;42.80
66032;DHT22;52799;45.654;13.810;2022-08-04T15:14:44;32.90;42.90
66032;DHT22;52799;45.654;13.810;2022-08-04T15:17:09;33.00;42.20
66032;DHT22;52799;45.654;13.810;2022-08-04T15:19:35;33.10;42.00
66032;DHT22;52799;45.654;13.810;2022-08-04T15:22:01;33.30;41.30
66032;DHT22;52799;45.654;13.810;2022-08-04T15:24:27;33.00;42.10
66032;DHT22;52799;45.654;13.810;2022-08-04T15:26:53;33.00;40.90
66032;DHT22;52799;45.654;13.810;2022-08-04T15:29:31;32.70;41.30
66032;DHT22;52799;45.654;13.810;2022-08-04T15:32:02;32.70;41.20
66032;DHT22;52799;45.654;13.810;2022-08-04T15:34:42;32.70;42.00
66032;DHT22;52799;45.654;13.810;2022-08-04T15:37:07;32.80;41.60
66032;DHT22;52799;45.654;13.810;2022-08-04T15:39:37;32.90;41.40
66032;DHT22;52799;45.654;13.810;2022-08-04T15:42:12;32.60;42.70
66032;DHT22;52799;45.654;13.810;2022-08-04T15:47:13;32.80;43.00
66032;DHT22;52799;45.654;13.810;2022-08-04T15:49:39;32.90;43.70
66032;DHT22;52799;45.654;13.810;2022-08-04T15:52:07;32.90;41.70
66032;DHT22;52799;45.654;13.810;2022-08-04T15:54:33;33.00;41.70
66032;DHT22;52799;45.654;13.810;2022-08-04T15:57:01;33.00;40.90
66032;DHT22;52799;45.654;13.810;2022-08-04T16:00:12;33.00;41.40
66032;DHT22;52799;45.654;13.810;2022-08-04T16:07:56;32.90;41.10
66032;DHT22;52799;45.654;13.810;2022-08-04T16:12:54;32.90;38.70
66032;DHT22;52799;45.654;13.810;2022-08-04T16:18:01;32.80;39.80
66032;DHT22;52799;45.654;13.810;2022-08-04T16:20:27;32.40;41.10
66032;DHT22;52799;45.654;13.810;2022-08-04T16:22:54;32.10;41.40
66032;DHT22;52799;45.654;13.810;2022-08-04T16:25:40;32.20;40.70
66032;DHT22;52799;45.654;13.810;2022-08-04T16:28:06;32.20;40.60
66032;DHT22;52799;45.654;13.810;2022-08-04T16:30:38;32.00;39.80
66032;DHT22;52799;45.654;13.810;2022-08-04T16:33:04;32.10;39.80
66032;DHT22;52799;45.654;13.810;2022-08-04T16:35:32;32.00;38.60
66032;DHT22;52799;45.654;13.810;2022-08-04T16:40:54;32.20;39.50
66032;DHT22;52799;45.654;13.810;2022-08-04T16:43:21;32.20;39.10
66032;DHT22;52799;45.654;13.810;2022-08-04T16:50:50;32.20;39.70
66032;DHT22;52799;45.654;13.810;2022-08-04T16:53:17;32.20;39.60
66032;DHT22;52799;45.654;13.810;2022-08-04T16:55:47;32.20;39.30
66032;DHT22;52799;45.654;13.810;2022-08-04T16:58:13;32.10;38.70
66032;DHT22;52799;45.654;13.810;2022-08-04T17:00:39;32.30;38.30
66032;DHT22;52799;45.654;13.810;2022-08-04T17:03:05;32.40;39.00
66032;DHT22;52799;45.654;13.810;2022-08-04T17:05:32;32.30;38.50
66032;DHT22;52799;45.654;13.810;2022-08-04T17:08:08;32.10;38.20
66032;DHT22;52799;45.654;13.810;2022-08-04T17:10:41;32.10;38.40
66032;DHT22;52799;45.654;13.810;2022-08-04T17:13:23;32.10;38.00
66032;DHT22;52799;45.654;13.810;2022-08-04T17:15:49;32.20;38.30
66032;DHT22;52799;45.654;13.810;2022-08-04T17:18:19;32.20;38.20
66032;DHT22;52799;45.654;13.810;2022-08-04T17:20:45;32.20;38.20
66032;DHT22;52799;45.654;13.810;2022-08-04T17:24:12;32.30;37.90
66032;DHT22;52799;45.654;13.810;2022-08-04T17:28:33;32.20;38.60
66032;DHT22;52799;45.654;13.810;2022-08-04T17:30:59;32.20;38.00
66032;DHT22;52799;45.654;13.810;2022-08-04T17:33:25;32.20;38.40
66032;DHT22;52799;45.654;13.810;2022-08-04T17:35:52;32.20;39.40
66032;DHT22;52799;45.654;13.810;2022-08-04T17:38:17;32.20;38.60
66032;DHT22;52799;45.654;13.810;2022-08-04T17:40:55;32.20;38.50
66032;DHT22;52799;45.654;13.810;2022-08-04T17:43:21;32.20;39.20
66032;DHT22;52799;45.654;13.810;2022-08-04T17:48:42;32.00;38.60
66032;DHT22;52799;45.654;13.810;2022-08-04T17:51:14;32.00;39.90
66032;DHT22;52799;45.654;13.810;2022-08-04T17:53:40;31.80;40.90
66032;DHT22;52799;45.654;13.810;2022-08-04T17:56:25;31.80;40.50
66032;DHT22;52799;45.654;13.810;2022-08-04T17:59:07;31.80;40.00
66032;DHT22;52799;45.654;13.810;2022-08-04T18:01:40;31.90;41.20
66032;DHT22;52799;45.654;13.810;2022-08-04T18:06:50;31.50;41.70
66032;DHT22;52799;45.654;13.810;2022-08-04T18:09:26;31.50;41.10
66032;DHT22;52799;45.654;13.810;2022-08-04T18:12:03;31.50;40.80
66032;DHT22;52799;45.654;13.810;2022-08-04T18:15:03;31.40;40.90
66032;DHT22;52799;45.654;13.810;2022-08-04T18:17:43;31.30;41.20
66032;DHT22;52799;45.654;13.810;2022-08-04T18:20:11;31.30;41.70
66032;DHT22;52799;45.654;13.810;2022-08-04T18:22:38;31.20;41.50
66032;DHT22;52799;45.654;13.810;2022-08-04T18:25:09;31.10;42.50
66032;DHT22;52799;45.654;13.810;2022-08-04T18:27:44;31.00;42.60
66032;DHT22;52799;45.654;13.810;2022-08-04T18:30:11;30.90;42.50
66032;DHT22;52799;45.654;13.810;2022-08-04T18:32:36;30.70;44.00
66032;DHT22;52799;45.654;13.810;2022-08-04T18:35:02;30.70;44.50
66032;DHT22;52799;45.654;13.810;2022-08-04T18:37:28;30.70;44.30
66032;DHT22;52799;45.654;13.810;2022-08-04T18:39:54;30.70;43.90
66032;DHT22;52799;45.654;13.810;2022-08-04T18:42:20;30.70;44.00
66032;DHT22;52799;45.654;13.810;2022-08-04T18:44:46;30.60;44.50
66032;DHT22;52799;45.654;13.810;2022-08-04T18:47:11;30.30;44.60
66032;DHT22;52799;45.654;13.810;2022-08-04T18:49:37;30.20;45.50
66032;DHT22;52799;45.654;13.810;2022-08-04T18:52:02;30.10;44.50
66032;DHT22;52799;45.654;13.810;2022-08-04T18:54:28;29.90;45.50
66032;DHT22;52799;45.654;13.810;2022-08-04T18:56:56;29.80;45.10
66032;DHT22;52799;45.654;13.810;2022-08-04T18:59:21;29.80;44.70
66032;DHT22;52799;45.654;13.810;2022-08-04T19:01:47;29.80;45.20
66032;DHT22;52799;45.654;13.810;2022-08-04T19:04:12;29.70;44.70
66032;DHT22;52799;45.654;13.810;2022-08-04T19:06:39;29.80;44.50
66032;DHT22;52799;45.654;13.810;2022-08-04T19:09:06;29.80;44.20
66032;DHT22;52799;45.654;13.810;2022-08-04T19:11:31;29.70;43.90
66032;DHT22;52799;45.654;13.810;2022-08-04T19:14:01;29.50;44.00
66032;DHT22;52799;45.654;13.810;2022-08-04T19:16:28;29.60;43.80
66032;DHT22;52799;45.654;13.810;2022-08-04T19:18:53;29.60;43.30
66032;DHT22;52799;45.654;13.810;2022-08-04T19:21:19;29.60;42.80
66032;DHT22;52799;45.654;13.810;2022-08-04T19:23:45;29.60;42.60
66032;DHT22;52799;45.654;13.810;2022-08-04T19:26:10;29.60;42.80
66032;DHT22;52799;45.654;13.810;2022-08-04T19:28:36;29.40;43.20
66032;DHT22;52799;45.654;13.810;2022-08-04T19:31:03;29.30;41.30
66032;DHT22;52799;45.654;13.810;2022-08-04T19:33:28;29.20;42.20
66032;DHT22;52799;45.654;13.810;2022-08-04T19:35:54;29.20;42.10
66032;DHT22;52799;45.654;13.810;2022-08-04T19:38:19;29.20;42.60
66032;DHT22;52799;45.654;13.810;2022-08-04T19:40:45;29.20;42.70
66032;DHT22;52799;45.654;13.810;2022-08-04T19:43:11;29.20;42.60
66032;DHT22;52799;45.654;13.810;2022-08-04T19:45:37;29.10;42.30
66032;DHT22;52799;45.654;13.810;2022-08-04T19:48:03;29.10;42.30
66032;DHT22;52799;45.654;13.810;2022-08-04T19:50:30;29.10;42.60
66032;DHT22;52799;45.654;13.810;2022-08-04T19:52:55;29.00;43.00
66032;DHT22;52799;45.654;13.810;2022-08-04T19:55:21;28.90;43.50
66032;DHT22;52799;45.654;13.810;2022-08-04T19:57:47;28.90;43.60
66032;DHT22;52799;45.654;13.810;2022-08-04T20:00:13;28.80;43.70
66032;DHT22;52799;45.654;13.810;2022-08-04T20:02:39;28.80;43.70
66032;DHT22;52799;45.654;13.810;2022-08-04T20:05:05;28.80;43.80
66032;DHT22;52799;45.654;13.810;2022-08-04T20:07:31;28.70;44.10
66032;DHT22;52799;45.654;13.810;2022-08-04T20:09:57;28.60;44.60
66032;DHT22;52799;45.654;13.810;2022-08-04T20:12:22;28.60;44.50
66032;DHT22;52799;45.654;13.810;2022-08-04T20:14:48;28.60;44.80
66032;DHT22;52799;45.654;13.810;2022-08-04T20:17:13;28.60;44.90
66032;DHT22;52799;45.654;13.810;2022-08-04T20:19:39;28.60;44.90
66032;DHT22;52799;45.654;13.810;2022-08-04T20:22:05;28.60;45.20
66032;DHT22;52799;45.654;13.810;2022-08-04T20:24:31;28.60;45.20
66032;DHT22;52799;45.654;13.810;2022-08-04T20:26:56;28.60;45.10
66032;DHT22;52799;45.654;13.810;2022-08-04T20:29:22;28.60;45.00
66032;DHT22;52799;45.654;13.810;2022-08-04T20:31:48;28.60;45.00
66032;DHT22;52799;45.654;13.810;2022-08-04T20:34:13;28.60;45.00
66032;DHT22;52799;45.654;13.810;2022-08-04T20:36:39;28.60;45.30
66032;DHT22;52799;45.654;13.810;2022-08-04T20:39:05;28.50;45.30
66032;DHT22;52799;45.654;13.810;2022-08-04T20:41:31;28.40;45.50
66032;DHT22;52799;45.654;13.810;2022-08-04T20:43:57;28.30;45.30
66032;DHT22;52799;45.654;13.810;2022-08-04T20:46:22;28.40;45.20
66032;DHT22;52799;45.654;13.810;2022-08-04T20:48:48;28.30;45.80
66032;DHT22;52799;45.654;13.810;2022-08-04T20:51:14;28.20;46.00
66032;DHT22;52799;45.654;13.810;2022-08-04T20:53:44;28.20;46.20
66032;DHT22;52799;45.654;13.810;2022-08-04T20:56:10;28.10;46.50
66032;DHT22;52799;45.654;13.810;2022-08-04T20:58:35;28.00;46.60
66032;DHT22;52799;45.654;13.810;2022-08-04T21:01:01;27.90;46.50
66032;DHT22;52799;45.654;13.810;2022-08-04T21:03:26;27.90;46.60
66032;DHT22;52799;45.654;13.810;2022-08-04T21:05:52;27.90;47.60
66032;DHT22;52799;45.654;13.810;2022-08-04T21:08:18;28.00;47.30
66032;DHT22;52799;45.654;13.810;2022-08-04T21:10:43;27.90;47.20
66032;DHT22;52799;45.654;13.810;2022-08-04T21:13:09;27.90;48.00
66032;DHT22;52799;45.654;13.810;2022-08-04T21:15:34;27.90;47.70
66032;DHT22;52799;45.654;13.810;2022-08-04T21:18:00;27.80;47.50
66032;DHT22;52799;45.654;13.810;2022-08-04T21:20:25;27.70;47.10
66032;DHT22;52799;45.654;13.810;2022-08-04T21:22:51;27.60;47.60
66032;DHT22;52799;45.654;13.810;2022-08-04T21:25:16;27.70;47.90
66032;DHT22;52799;45.654;13.810;2022-08-04T21:27:42;27.70;47.50
66032;DHT22;52799;45.654;13.810;2022-08-04T21:30:08;27.70;47.70
66032;DHT22;52799;45.654;13.810;2022-08-04T21:32:34;27.70;47.40
66032;DHT22;52799;45.654;13.810;2022-08-04T21:34:59;27.70;47.30
66032;DHT22;52799;45.654;13.810;2022-08-04T21:37:25;27.70;46.40
66032;DHT22;52799;45.654;13.810;2022-08-04T21:39:51;27.70;46.00
66032;DHT22;52799;45.654;13.810;2022-08-04T21:42:16;27.70;46.10
66032;DHT22;52799;45.654;13.810;2022-08-04T21:44:42;27.60;46.00
66032;DHT22;52799;45.654;13.810;2022-08-04T21:47:08;27.70;45.50
66032;DHT22;52799;45.654;13.810;2022-08-04T21:49:33;27.70;45.60
66032;DHT22;52799;45.654;13.810;2022-08-04T21:51:59;27.70;44.50
66032;DHT22;52799;45.654;13.810;2022-08-04T21:54:25;27.80;44.70
66032;DHT22;52799;45.654;13.810;2022-08-04T21:56:50;27.70;44.30
66032;DHT22;52799;45.654;13.810;2022-08-04T21:59:16;27.70;43.30
66032;DHT22;52799;45.654;13.810;2022-08-04T22:01:42;27.60;44.70
66032;DHT22;52799;45.654;13.810;2022-08-04T22:04:07;27.60;44.50
66032;DHT22;52799;45.654;13.810;2022-08-04T22:06:33;27.70;43.40
66032;DHT22;52799;45.654;13.810;2022-08-04T22:08:58;27.70;42.70
66032;DHT22;52799;45.654;13.810;2022-08-04T22:13:53;27.60;44.60
66032;DHT22;52799;45.654;13.810;2022-08-04T22:16:19;27.60;43.70
66032;DHT22;52799;45.654;13.810;2022-08-04T22:18:44;27.70;43.20
66032;DHT22;52799;45.654;13.810;2022-08-04T22:21:10;27.70;43.00
66032;DHT22;52799;45.654;13.810;2022-08-04T22:23:36;27.60;42.80
66032;DHT22;52799;45.654;13.810;2022-08-04T22:26:01;27.70;43.20
66032;DHT22;52799;45.654;13.810;2022-08-04T22:28:27;27.70;42.70
66032;DHT22;52799;45.654;13.810;2022-08-04T22:30:52;27.80;42.50
66032;DHT22;52799;45.654;13.810;2022-08-04T22:33:18;27.90;42.90
66032;DHT22;52799;45.654;13.810;2022-08-04T22:35:43;27.80;42.80
66032;DHT22;52799;45.654;13.810;2022-08-04T22:38:09;27.80;43.10
66032;DHT22;52799;45.654;13.810;2022-08-04T22:40:37;27.70;43.40
66032;DHT22;52799;45.654;13.810;2022-08-04T22:43:03;27.80;42.60
66032;DHT22;52799;45.654;13.810;2022-08-04T22:45:28;27.70;43.80
66032;DHT22;52799;45.654;13.810;2022-08-04T22:47:54;27.70;43.80
66032;DHT22;52799;45.654;13.810;2022-08-04T22:50:20;27.60;44.10
66032;DHT22;52799;45.654;13.810;2022-08-04T22:52:46;27.60;43.80
66032;DHT22;52799;45.654;13.810;2022-08-04T22:55:11;27.60;44.20
66032;DHT22;52799;45.654;13.810;2022-08-04T22:57:37;27.60;44.70
66032;DHT22;52799;45.654;13.810;2022-08-04T23:00:03;27.70;44.50
66032;DHT22;52799;45.654;13.810;2022-08-04T23:02:29;27.50;44.90
66032;DHT22;52799;45.654;13.810;2022-08-04T23:04:54;27.50;45.30
66032;DHT22;52799;45.654;13.810;2022-08-04T23:07:20;27.40;45.30
66032;DHT22;52799;45.654;13.810;2022-08-04T23:09:45;27.40;45.20
66032;DHT22;52799;45.654;13.810;2022-08-04T23:12:11;27.40;44.80
66032;DHT22;52799;45.654;13.810;2022-08-04T23:14:36;27.40;45.70
66032;DHT22;52799;45.654;13.810;2022-08-04T23:17:02;27.20;45.50
66032;DHT22;52799;45.654;13.810;2022-08-04T23:19:28;27.30;44.70
66032;DHT22;52799;45.654;13.810;2022-08-04T23:21:53;27.40;45.40
66032;DHT22;52799;45.654;13.810;2022-08-04T23:24:19;27.30;45.70
66032;DHT22;52799;45.654;13.810;2022-08-04T23:26:47;27.30;45.30
66032;DHT22;52799;45.654;13.810;2022-08-04T23:29:13;27.30;45.20
66032;DHT22;52799;45.654;13.810;2022-08-04T23:31:38;27.40;45.20
66032;DHT22;52799;45.654;13.810;2022-08-04T23:34:04;27.40;45.80
66032;DHT22;52799;45.654;13.810;2022-08-04T23:36:29;27.40;45.90
66032;DHT22;52799;45.654;13.810;2022-08-04T23:39:00;27.30;45.70
66032;DHT22;52799;45.654;13.810;2022-08-04T23:41:25;27.20;46.40
66032;DHT22;52799;45.654;13.810;2022-08-04T23:43:51;27.20;46.10
66032;DHT22;52799;45.654;13.810;2022-08-04T23:46:16;27.20;45.80
66032;DHT22;52799;45.654;13.810;2022-08-04T23:48:42;27.10;46.70
66032;DHT22;52799;45.654;13.810;2022-08-04T23:51:10;27.20;46.80
66032;DHT22;52799;45.654;13.810;2022-08-04T23:53:36;27.10;45.70
66032;DHT22;52799;45.654;13.810;2022-08-04T23:56:11;27.20;45.60
66032;DHT22;52799;45.654;13.810;2022-08-04T23:58:38;27.20;45.30
